createdAt,value
2023-04-24T00:01:50.059Z,2.16
2023-04-24T00:06:57.446Z,3.12
2023-04-24T00:12:04.707Z,2.81
2023-04-24T00:17:12.219Z,2.92
2023-04-24T00:22:19.459Z,2.79
2023-04-24T00:27:26.789Z,4.00
2023-04-24T00:32:34.047Z,2.52
2023-04-24T00:37:41.412Z,2.57
2023-04-24T00:42:48.617Z,3.10
2023-04-24T00:47:56.039Z,2.08
2023-04-24T00:53:03.340Z,1.81
2023-04-24T00:58:10.834Z,1.91
2023-04-24T01:03:18.280Z,2.12
2023-04-24T01:08:25.533Z,1.98
2023-04-24T01:13:32.754Z,2.10
2023-04-24T01:18:40.202Z,2.12
2023-04-24T01:23:47.470Z,1.78
2023-04-24T01:28:54.935Z,1.85
2023-04-24T01:34:02.303Z,1.92
2023-04-24T01:39:09.730Z,1.94
2023-04-24T01:44:16.978Z,1.65
2023-04-24T01:49:24.399Z,1.90
2023-04-24T01:54:31.590Z,1.92
2023-04-24T01:59:38.865Z,1.90
2023-04-24T02:04:46.122Z,1.78
2023-04-24T02:09:53.573Z,2.06
2023-04-24T02:15:00.853Z,1.75
2023-04-24T02:20:08.155Z,2.32
2023-04-24T02:25:15.500Z,2.21
2023-04-24T02:30:23.002Z,2.53
2023-04-24T02:35:30.260Z,1.85
2023-04-24T02:40:37.595Z,3.27
2023-04-24T02:45:44.888Z,2.32
2023-04-24T02:50:52.207Z,1.95
2023-04-24T02:55:59.379Z,1.92
2023-04-24T03:01:06.922Z,2.90
2023-04-24T03:06:14.006Z,2.21
2023-04-24T03:11:21.271Z,3.22
2023-04-24T03:16:28.482Z,2.22
2023-04-24T03:21:35.815Z,2.35
2023-04-24T03:26:43.080Z,2.87
2023-04-24T03:31:50.503Z,2.59
2023-04-24T03:36:57.771Z,2.34
2023-04-24T03:42:05.279Z,2.35
2023-04-24T03:47:12.609Z,2.93
2023-04-24T03:52:19.903Z,2.00
2023-04-24T03:57:27.106Z,2.86
2023-04-24T04:02:34.712Z,2.15
2023-04-24T04:07:41.732Z,2.36
2023-04-24T04:12:49.054Z,3.56
2023-04-24T04:17:56.413Z,2.32
2023-04-24T04:23:03.825Z,1.89
2023-04-24T04:28:11.003Z,2.96
2023-04-24T04:33:18.381Z,2.52
2023-04-24T04:38:25.595Z,3.27
2023-04-24T04:43:33.006Z,2.36
2023-04-24T04:48:40.273Z,2.81
2023-04-24T04:53:47.760Z,3.01
2023-04-24T04:58:55.088Z,2.90
2023-04-24T05:04:02.670Z,2.58
2023-04-24T05:09:09.763Z,2.97
2023-04-24T05:14:17.080Z,2.41
2023-04-24T05:19:24.395Z,4.43
2023-04-24T05:24:31.808Z,3.93
2023-04-24T05:29:39.066Z,4.96
2023-04-24T05:34:46.405Z,3.03
2023-04-24T05:39:53.627Z,4.85
2023-04-24T05:45:01.210Z,4.02
2023-04-24T05:50:08.475Z,3.35
2023-04-24T05:55:15.860Z,4.17
2023-04-24T06:00:23.161Z,4.43
2023-04-24T06:05:30.796Z,5.07
2023-04-24T06:10:38.011Z,5.24
2023-04-24T06:15:45.302Z,5.51
2023-04-24T06:20:52.506Z,5.55
2023-04-24T06:25:59.925Z,4.43
2023-04-24T06:31:07.241Z,6.54
2023-04-24T06:36:14.628Z,5.69
2023-04-24T06:41:21.861Z,6.34
2023-04-24T06:46:29.348Z,5.20
2023-04-24T06:51:37.146Z,5.02
2023-04-24T06:56:44.512Z,4.26
2023-04-24T07:01:53.971Z,3.79
2023-04-24T07:06:58.571Z,4.17
2023-04-24T07:12:05.896Z,6.74
2023-04-24T07:17:13.234Z,5.79
2023-04-24T07:22:20.416Z,3.67
2023-04-24T07:27:27.798Z,3.37
2023-04-24T07:32:35.046Z,3.44
2023-04-24T07:37:42.542Z,4.50
2023-04-24T07:42:49.810Z,3.01
2023-04-24T07:47:57.312Z,3.64
2023-04-24T07:53:04.586Z,3.17
2023-04-24T07:58:11.981Z,2.54
2023-04-24T08:03:19.397Z,3.23
2023-04-24T08:08:26.677Z,2.80
2023-04-24T08:13:33.901Z,3.58
2023-04-24T08:18:41.414Z,2.35
2023-04-24T08:23:48.663Z,3.32
2023-04-24T08:28:56.018Z,2.98
2023-04-24T08:34:03.220Z,3.01
2023-04-24T08:39:10.559Z,3.91
2023-04-24T08:44:17.793Z,3.15
2023-04-24T08:49:25.179Z,8.83
2023-04-24T08:54:32.469Z,5.36
2023-04-24T08:59:39.906Z,15.20
2023-04-24T09:04:47.341Z,3.80
2023-04-24T09:09:54.580Z,4.04
2023-04-24T09:15:01.953Z,3.56
2023-04-24T09:20:12.400Z,2.56
2023-04-24T09:25:09.620Z,3.20
2023-04-24T09:30:17.021Z,3.08
2023-04-24T09:35:24.338Z,3.49
2023-04-24T09:40:31.865Z,2.71
2023-04-24T09:45:39.335Z,6.03
2023-04-24T09:50:46.934Z,3.65
2023-04-24T09:55:54.378Z,3.99
2023-04-24T10:01:02.279Z,3.04
2023-04-24T10:06:10.232Z,2.69
2023-04-24T10:11:17.056Z,2.14
2023-04-24T10:16:24.448Z,2.55
2023-04-24T10:21:31.952Z,3.98
2023-04-24T10:26:39.502Z,2.05
2023-04-24T10:31:47.038Z,1.88
2023-04-24T10:36:56.517Z,2.67
2023-04-24T10:42:01.082Z,2.17
2023-04-24T10:47:08.409Z,2.30
2023-04-24T10:52:15.707Z,2.54
2023-04-24T10:57:23.084Z,2.84
2023-04-24T11:02:30.406Z,2.12
2023-04-24T11:07:37.124Z,2.54
2023-04-24T11:12:44.549Z,2.48
2023-04-24T11:17:51.930Z,1.89
2023-04-24T11:22:59.087Z,2.36
2023-04-24T11:28:06.496Z,1.76
2023-04-24T11:33:13.867Z,1.84
2023-04-24T11:38:24.636Z,1.65
2023-04-24T11:43:27.931Z,4.86
2023-04-24T11:48:35.286Z,2.13
2023-04-24T11:53:42.740Z,1.32
2023-04-24T11:58:49.453Z,1.95
2023-04-24T12:03:56.992Z,2.57
2023-04-24T12:09:11.417Z,1.40
2023-04-24T12:14:10.957Z,1.10
2023-04-24T12:19:18.220Z,1.59
2023-04-24T12:24:25.745Z,2.21
2023-04-24T12:29:32.915Z,1.98
2023-04-24T12:34:40.364Z,1.78
2023-04-24T12:39:47.659Z,1.06
2023-04-24T12:44:55.087Z,1.11
2023-04-24T12:50:02.351Z,1.28
2023-04-24T12:55:10.014Z,0.92
2023-04-24T13:00:19.971Z,0.97
2023-04-24T13:05:25.371Z,1.22
2023-04-24T13:10:31.117Z,1.10
2023-04-24T13:15:38.385Z,1.16
2023-04-24T13:20:45.692Z,1.12
2023-04-24T13:25:53.138Z,1.67
2023-04-24T13:31:00.428Z,1.66
2023-04-24T13:36:07.768Z,1.55
2023-04-24T13:41:15.013Z,3.06
2023-04-24T13:46:22.495Z,4.10
2023-04-24T13:51:29.669Z,4.07
2023-04-24T13:56:37.120Z,3.78
2023-04-24T14:01:44.474Z,5.30
2023-04-24T14:06:51.820Z,4.25
2023-04-24T14:11:59.143Z,3.60
2023-04-24T14:17:06.552Z,3.21
2023-04-24T14:22:14.264Z,2.67
2023-04-24T14:27:21.592Z,2.80
2023-04-24T14:32:32.065Z,2.33
2023-04-24T14:37:29.425Z,1.94
2023-04-24T14:42:44.051Z,2.01
2023-04-24T14:47:41.443Z,1.65
2023-04-24T14:52:52.443Z,2.50
2023-04-24T14:57:49.873Z,2.88
2023-04-24T15:03:00.311Z,2.10
2023-04-24T15:07:57.553Z,2.12
2023-04-24T15:13:05.753Z,2.17
2023-04-24T15:18:13.437Z,3.27
2023-04-24T15:23:20.664Z,1.80
2023-04-24T15:28:28.053Z,2.09
2023-04-24T15:33:35.492Z,1.51
2023-04-24T15:38:42.952Z,1.44
2023-04-24T15:43:50.451Z,2.77
2023-04-24T15:49:00.530Z,1.27
2023-04-24T15:53:57.802Z,1.62
2023-04-24T15:59:06.581Z,1.04
2023-04-24T16:04:14.063Z,1.42
2023-04-24T16:09:24.570Z,1.57
2023-04-24T16:14:21.852Z,1.16
2023-04-24T16:19:23.765Z,1.49
2023-04-24T16:24:31.046Z,1.58
2023-04-24T16:29:42.203Z,1.08
2023-04-24T16:34:39.475Z,1.29
2023-04-24T16:39:58.681Z,2.64
2023-04-24T16:44:56.151Z,1.08
2023-04-24T16:50:03.758Z,1.46
2023-04-24T16:55:11.108Z,1.48
2023-04-24T17:00:19.187Z,1.34
2023-04-24T17:05:26.621Z,1.65
2023-04-24T17:10:33.858Z,1.23
2023-04-24T17:15:41.300Z,2.81
2023-04-24T17:20:48.586Z,1.29
2023-04-24T17:25:56.055Z,4.14
2023-04-24T17:31:03.519Z,3.45
2023-04-24T17:36:11.109Z,1.73
2023-04-24T17:41:18.381Z,1.23
2023-04-24T17:46:25.879Z,1.61
2023-04-24T17:51:33.128Z,1.32
2023-04-24T17:56:40.700Z,1.17
2023-04-24T18:01:48.077Z,1.24
2023-04-24T18:06:55.557Z,1.29
2023-04-24T18:12:02.843Z,1.31
2023-04-24T18:17:10.579Z,0.91
2023-04-24T18:22:17.845Z,0.94
2023-04-24T18:27:25.287Z,1.38
2023-04-24T18:32:32.529Z,1.07
2023-04-24T18:37:39.814Z,1.56
2023-04-24T18:42:47.161Z,1.30
2023-04-24T18:47:54.637Z,1.19
2023-04-24T18:53:01.899Z,1.21
2023-04-24T18:58:09.308Z,1.79
2023-04-24T19:03:16.972Z,1.03
2023-04-24T19:08:24.228Z,1.15
2023-04-24T19:13:31.434Z,1.74
2023-04-24T19:18:39.171Z,1.51
2023-04-24T19:23:46.472Z,3.28
2023-04-24T19:28:53.811Z,1.78
2023-04-24T19:34:00.999Z,1.53
2023-04-24T19:39:08.466Z,1.66
2023-04-24T19:44:15.788Z,1.46
2023-04-24T19:49:23.152Z,2.09
2023-04-24T19:54:30.416Z,1.12
2023-04-24T19:59:37.810Z,1.29
2023-04-24T20:04:45.215Z,1.84
2023-04-24T20:09:52.489Z,1.22
2023-04-24T20:14:59.900Z,1.41
2023-04-24T20:20:07.364Z,1.56
2023-04-24T20:25:14.568Z,2.12
2023-04-24T20:30:22.030Z,1.24
2023-04-24T20:35:29.327Z,1.72
2023-04-24T20:40:37.633Z,0.90
2023-04-24T20:45:43.657Z,0.90
2023-04-24T20:50:50.954Z,1.01
2023-04-24T20:55:58.214Z,1.05
2023-04-24T21:01:05.693Z,1.38
2023-04-24T21:06:12.948Z,0.99
2023-04-24T21:11:20.268Z,0.91
2023-04-24T21:16:27.669Z,0.80
2023-04-24T21:21:34.951Z,0.83
2023-04-24T21:26:42.234Z,1.33
2023-04-24T21:31:49.624Z,0.74
2023-04-24T21:36:56.885Z,0.64
2023-04-24T21:42:04.216Z,1.63
2023-04-24T21:47:11.460Z,0.68
2023-04-24T21:52:18.889Z,1.50
2023-04-24T21:57:26.098Z,0.68
2023-04-24T22:02:33.774Z,0.54
2023-04-24T22:07:40.947Z,0.62
2023-04-24T22:12:48.439Z,0.53
2023-04-24T22:17:55.813Z,0.59
2023-04-24T22:23:03.412Z,0.61
2023-04-24T22:28:10.739Z,0.55
2023-04-24T22:33:18.347Z,0.77
2023-04-24T22:38:25.547Z,0.58
2023-04-24T22:43:32.884Z,0.53
2023-04-24T22:48:40.166Z,0.57
2023-04-24T22:53:47.721Z,0.69
2023-04-24T22:58:54.765Z,0.57
2023-04-24T23:04:02.271Z,0.65
2023-04-24T23:09:09.391Z,0.54
2023-04-24T23:14:16.750Z,0.87
2023-04-24T23:19:24.055Z,0.91
2023-04-24T23:24:31.673Z,0.54
2023-04-24T23:29:38.978Z,0.51
2023-04-24T23:34:46.455Z,0.62
2023-04-24T23:39:53.746Z,1.06
2023-04-24T23:45:01.243Z,0.53
2023-04-24T23:50:08.500Z,0.56
2023-04-24T23:55:15.966Z,0.52
